Time;durP1;ratioP1;P1;durP2;ratioP2;P2;SDS_P1;SDS_P2;PMS_P1;PMS_P2;Temp;Humidity;BMP_temperature;BMP_pressure;BME280_temperature;BME280_humidity;BME280_pressure;Samples;Min_cycle;Max_cycle;Signal;HPM_P1;HPM_P2
2022/10/09 00:01:34;;;;;;;3.50;2.10;;;17.70;68.70;;;;;;10384228;28;20052;-61
2022/10/09 00:06:35;;;;;;;3.20;2.20;;;17.70;68.10;;;;;;10372103;28;20101;-61
2022/10/09 00:11:35;;;;;;;2.85;1.60;;;17.70;68.00;;;;;;10364126;28;20026;-61
2022/10/09 00:16:36;;;;;;;4.22;2.15;;;17.70;68.20;;;;;;10376226;28;20109;-61
2022/10/09 00:21:36;;;;;;;3.20;1.70;;;17.70;67.90;;;;;;10362740;28;20046;-62
2022/10/09 00:26:37;;;;;;;3.47;2.00;;;17.60;67.80;;;;;;10362791;28;20152;-62
2022/10/09 00:31:38;;;;;;;3.15;1.67;;;17.60;67.90;;;;;;10362612;28;20090;-62
2022/10/09 00:36:38;;;;;;;2.88;1.55;;;17.60;67.80;;;;;;10362727;28;20471;-62
2022/10/09 00:41:40;;;;;;;3.22;1.50;;;17.60;67.70;;;;;;10363345;28;20100;-62
2022/10/09 00:46:49;;;;;;;3.60;1.70;;;17.60;67.70;;;;;;10376833;28;20025;-62
2022/10/09 00:51:53;;;;;;;4.32;1.88;;;17.60;67.60;;;;;;10378703;28;20029;-62
2022/10/09 00:56:54;;;;;;;3.20;1.83;;;17.60;67.60;;;;;;10365049;28;20026;-62
2022/10/09 01:01:55;;;;;;;3.22;1.70;;;17.60;67.60;;;;;;10361893;28;20639;-62
2022/10/09 01:07:28;;;;;;;2.85;1.95;;;17.60;67.80;;;;;;10364602;28;20022;-62
2022/10/09 01:12:44;;;;;;;3.83;1.65;;;17.60;67.40;;;;;;10370126;28;20432;-62
2022/10/09 01:18:11;;;;;;;2.85;1.83;;;17.50;67.50;;;;;;10379808;28;20585;-62
2022/10/09 01:24:05;;;;;;;3.00;1.92;;;17.60;67.50;;;;;;10371628;28;20026;-62
2022/10/09 01:29:08;;;;;;;3.50;1.85;;;17.50;67.40;;;;;;10359599;28;20104;-62
2022/10/09 01:34:12;;;;;;;3.22;1.60;;;17.50;67.50;;;;;;10368981;28;20030;-61
2022/10/09 01:39:17;;;;;;;4.25;1.70;;;17.50;67.60;;;;;;10368516;28;20380;-61
2022/10/09 01:44:25;;;;;;;3.30;1.85;;;17.50;67.30;;;;;;10369002;28;20049;-61
2022/10/09 01:49:53;;;;;;;2.45;1.73;;;17.50;67.30;;;;;;10368293;28;20025;-61
2022/10/09 01:55:24;;;;;;;4.55;1.98;;;17.50;67.30;;;;;;10367840;28;20022;-61
2022/10/09 02:00:27;;;;;;;2.38;1.52;;;17.50;67.00;;;;;;10386855;28;20018;-62
2022/10/09 02:05:29;;;;;;;2.38;1.23;;;17.50;67.10;;;;;;10367490;28;20022;-62
2022/10/09 02:10:33;;;;;;;2.97;1.70;;;17.50;67.20;;;;;;10378683;28;20465;-62
2022/10/09 02:16:13;;;;;;;3.00;2.00;;;17.40;67.10;;;;;;10368684;28;20053;-62
2022/10/09 02:21:17;;;;;;;;;;;17.40;66.90;;;;;;10367547;28;20117;-62
2022/10/09 02:26:18;;;;;;;2.33;1.60;;;17.40;66.80;;;;;;10363777;28;19916;-61
2022/10/09 02:31:28;;;;;;;3.65;1.67;;;17.40;67.00;;;;;;10366770;28;20018;-62
2022/10/09 02:36:30;;;;;;;3.28;2.00;;;17.40;66.80;;;;;;10366406;28;20041;-61
2022/10/09 02:41:31;;;;;;;3.53;2.05;;;17.40;66.90;;;;;;10365981;28;20034;-61
2022/10/09 02:46:33;;;;;;;4.00;1.50;;;17.40;66.90;;;;;;10377933;28;20105;-62
2022/10/09 02:51:34;;;;;;;2.58;1.73;;;17.40;66.90;;;;;;10364536;28;20454;-62
2022/10/09 02:56:35;;;;;;;2.30;1.77;;;17.40;66.80;;;;;;10371986;28;20040;-62
2022/10/09 03:01:36;;;;;;;4.40;1.90;;;17.30;67.30;;;;;;10391170;28;20848;-62
2022/10/09 03:06:36;;;;;;;1.90;1.33;;;17.30;66.60;;;;;;10379655;28;20095;-62
2022/10/09 03:11:37;;;;;;;1.95;1.40;;;17.30;66.60;;;;;;10372394;28;20723;-61
2022/10/09 03:16:38;;;;;;;3.03;1.70;;;17.30;66.70;;;;;;10371305;28;20113;-61
2022/10/09 03:21:38;;;;;;;3.75;1.45;;;17.30;66.60;;;;;;10364529;28;20108;-62
2022/10/09 03:26:39;;;;;;;4.25;2.08;;;17.30;66.60;;;;;;10380767;28;20104;-62
2022/10/09 03:31:40;;;;;;;3.38;1.88;;;17.30;66.50;;;;;;10363905;28;20453;-61
2022/10/09 03:36:41;;;;;;;2.45;1.50;;;17.30;66.50;;;;;;10364008;28;20057;-61
2022/10/09 03:41:41;;;;;;;3.15;1.95;;;17.30;66.50;;;;;;10363815;28;20037;-61
2022/10/09 03:46:42;;;;;;;3.03;1.58;;;17.30;66.50;;;;;;10363715;28;20025;-62
2022/10/09 03:51:43;;;;;;;2.17;1.60;;;17.20;66.50;;;;;;10363315;28;20324;-62
2022/10/09 03:56:43;;;;;;;2.63;1.67;;;17.20;66.40;;;;;;10379105;28;20026;-62
2022/10/09 04:01:44;;;;;;;2.28;1.48;;;17.20;66.30;;;;;;10363444;28;20046;-61
2022/10/09 04:06:44;;;;;;;2.00;1.48;;;17.20;66.40;;;;;;10363093;28;20046;-62
2022/10/09 04:11:45;;;;;;;2.13;1.52;;;17.20;66.40;;;;;;10392956;28;20134;-62
2022/10/09 04:16:46;;;;;;;3.08;1.75;;;17.20;66.40;;;;;;10363932;28;20113;-61
2022/10/09 04:21:46;;;;;;;2.28;1.67;;;17.20;66.70;;;;;;10379125;28;20101;-61
2022/10/09 04:26:47;;;;;;;3.60;1.77;;;17.20;66.40;;;;;;10377226;28;20504;-61
2022/10/09 04:31:48;;;;;;;3.00;1.85;;;17.20;66.40;;;;;;10362660;28;20133;-62
2022/10/09 04:36:48;;;;;;;3.55;2.40;;;17.20;66.40;;;;;;10364026;28;20033;-62
2022/10/09 04:41:49;;;;;;;3.95;1.73;;;17.20;66.30;;;;;;10366112;28;20073;-61
2022/10/09 04:46:50;;;;;;;3.75;2.05;;;17.20;66.20;;;;;;10371642;28;20026;-63
2022/10/09 04:51:51;;;;;;;4.13;2.03;;;17.20;66.20;;;;;;10369780;28;20113;-61
2022/10/09 04:56:51;;;;;;;4.80;2.10;;;17.10;66.10;;;;;;10383580;28;20060;-62
2022/10/09 05:01:52;;;;;;;6.60;2.03;;;17.20;65.80;;;;;;10370433;28;20101;-61
2022/10/09 05:06:53;;;;;;;7.07;2.55;;;17.20;66.00;;;;;;10368979;28;20634;-60
2022/10/09 05:11:53;;;;;;;10.05;2.38;;;17.20;66.40;;;;;;10370626;28;20065;-61
2022/10/09 05:16:56;;;;;;;8.45;2.22;;;17.30;66.40;;;;;;10369778;28;20025;-61
2022/10/09 05:21:58;;;;;;;5.38;2.17;;;17.40;66.50;;;;;;10369673;28;20111;-60
2022/10/09 05:26:58;;;;;;;8.20;2.13;;;17.40;66.90;;;;;;10369434;28;20374;-60
2022/10/09 05:31:59;;;;;;;10.07;2.75;;;17.40;67.50;;;;;;10383958;28;20049;-57
2022/10/09 05:37:00;;;;;;;9.45;3.05;;;17.40;67.00;;;;;;10382335;28;20418;-60
2022/10/09 05:42:01;;;;;;;8.73;2.78;;;17.30;67.10;;;;;;10366367;28;20046;-60
2022/10/09 05:47:01;;;;;;;9.57;2.53;;;17.30;67.30;;;;;;10379372;28;20018;-60
2022/10/09 05:52:02;;;;;;;6.18;2.47;;;17.20;67.20;;;;;;10368128;28;20637;-60
2022/10/09 05:57:03;;;;;;;12.57;2.65;;;17.20;66.70;;;;;;10370086;28;20057;-61
2022/10/09 06:02:04;;;;;;;10.20;2.60;;;17.20;66.80;;;;;;10369540;28;20036;-61
2022/10/09 06:07:05;;;;;;;10.48;2.85;;;17.20;66.70;;;;;;10366505;28;20052;-61
2022/10/09 06:12:05;;;;;;;12.15;3.33;;;17.20;66.60;;;;;;10367553;28;20050;-58
2022/10/09 06:17:06;;;;;;;12.60;3.25;;;17.10;66.30;;;;;;10367264;28;20697;-58
2022/10/09 06:22:06;;;;;;;12.32;3.10;;;17.10;66.00;;;;;;10367037;28;20025;-58
2022/10/09 06:27:07;;;;;;;10.10;3.53;;;17.10;66.00;;;;;;10366248;28;20543;-57
2022/10/09 06:32:08;;;;;;;7.47;2.03;;;17.10;66.40;;;;;;10366688;28;20113;-58
2022/10/09 06:37:08;;;;;;;7.13;2.90;;;17.10;66.40;;;;;;10363008;28;20036;-57
2022/10/09 06:42:09;;;;;;;6.95;2.55;;;17.10;66.40;;;;;;10362510;28;20053;-57
2022/10/09 06:47:10;;;;;;;10.38;2.95;;;17.10;66.50;;;;;;10361362;28;20026;-57
2022/10/09 06:52:10;;;;;;;8.30;3.53;;;17.00;66.40;;;;;;10363042;28;20026;-57
2022/10/09 06:57:11;;;;;;;4.38;2.47;;;17.00;66.40;;;;;;10349375;28;20124;-56
2022/10/09 07:02:12;;;;;;;10.10;2.45;;;17.00;66.40;;;;;;10364576;28;20093;-57
2022/10/09 07:07:12;;;;;;;6.10;2.55;;;17.00;66.30;;;;;;10363770;28;20112;-57
2022/10/09 07:12:13;;;;;;;5.70;2.15;;;17.00;66.40;;;;;;10379063;28;20068;-58
2022/10/09 07:17:13;;;;;;;5.07;2.50;;;17.00;66.30;;;;;;10363818;28;20054;-57
2022/10/09 07:22:14;;;;;;;6.25;2.40;;;17.00;66.30;;;;;;10360971;28;20105;-55
2022/10/09 07:27:16;;;;;;;8.60;3.30;;;17.00;66.10;;;;;;10365610;28;20108;-54
2022/10/09 07:32:17;;;;;;;4.68;2.30;;;16.90;66.00;;;;;;10365557;28;20049;-55
2022/10/09 07:37:17;;;;;;;4.50;2.60;;;17.00;66.10;;;;;;10365252;28;20539;-55
2022/10/09 07:42:18;;;;;;;4.63;2.67;;;16.90;66.10;;;;;;10365261;28;20084;-56
2022/10/09 07:47:19;;;;;;;4.80;2.47;;;16.90;65.80;;;;;;10363576;28;20101;-55
2022/10/09 07:52:19;;;;;;;5.80;2.85;;;16.90;65.80;;;;;;10364107;28;20069;-56
2022/10/09 07:57:20;;;;;;;7.32;2.90;;;16.90;65.70;;;;;;10366849;28;20521;-56
2022/10/09 08:02:20;;;;;;;7.30;2.65;;;16.90;65.80;;;;;;10363679;28;20057;-56
2022/10/09 08:07:21;;;;;;;8.10;3.30;;;16.90;66.30;;;;;;10363871;28;20095;-56
2022/10/09 08:12:22;;;;;;;6.25;2.53;;;17.00;65.90;;;;;;10363559;28;20548;-56
2022/10/09 08:17:22;;;;;;;9.73;3.78;;;17.00;65.90;;;;;;10378915;28;20121;-57
2022/10/09 08:22:23;;;;;;;7.80;3.35;;;17.00;66.00;;;;;;10361970;28;20021;-57
2022/10/09 08:27:24;;;;;;;6.82;3.28;;;17.00;66.00;;;;;;10362646;28;20030;-57
2022/10/09 08:32:24;;;;;;;9.10;3.63;;;17.00;66.00;;;;;;10362298;28;20030;-56
2022/10/09 08:37:25;;;;;;;11.15;3.92;;;17.10;66.20;;;;;;10361363;28;20124;-57
2022/10/09 08:42:37;;;;;;;10.95;3.33;;;17.10;66.20;;;;;;10362404;28;20084;-56
2022/10/09 08:47:55;;;;;;;18.08;4.15;;;17.10;66.40;;;;;;10363540;28;20522;-57
2022/10/09 08:53:35;;;;;;;9.25;4.20;;;17.10;66.50;;;;;;10362285;28;20030;-57
2022/10/09 08:58:39;;;;;;;11.82;2.92;;;17.10;66.50;;;;;;10359525;28;20054;-55
2022/10/09 09:03:55;;;;;;;11.45;3.30;;;17.20;66.60;;;;;;10361622;28;20022;-56
2022/10/09 09:09:29;;;;;;;14.55;4.57;;;17.20;66.70;;;;;;10361549;28;20058;-55
2022/10/09 09:15:13;;;;;;;11.73;3.33;;;17.20;66.80;;;;;;10357356;28;20068;-57
2022/10/09 09:21:07;;;;;;;12.60;3.28;;;17.30;67.10;;;;;;10361611;28;20029;-56
2022/10/09 09:26:20;;;;;;;15.18;3.85;;;17.30;68.20;;;;;;10346256;28;20030;-57
2022/10/09 09:31:35;;;;;;;11.63;4.03;;;17.40;68.50;;;;;;10368688;28;20460;-57
2022/10/09 09:36:57;;;;;;;9.35;3.50;;;17.40;67.90;;;;;;10382592;28;20044;-57
2022/10/09 09:42:13;;;;;;;18.60;4.05;;;17.40;67.70;;;;;;10368371;28;20120;-57
2022/10/09 09:47:25;;;;;;;15.45;3.90;;;17.40;67.70;;;;;;10368454;28;20029;-58
2022/10/09 09:52:30;;;;;;;21.08;4.53;;;17.50;68.00;;;;;;10368035;28;20026;-57
2022/10/09 09:57:42;;;;;;;9.90;3.30;;;17.50;67.70;;;;;;10367257;28;20049;-57
2022/10/09 10:02:42;;;;;;;11.32;3.08;;;17.50;67.60;;;;;;10362677;28;20680;-57
2022/10/09 10:07:43;;;;;;;10.38;3.15;;;17.50;67.50;;;;;;10366942;28;20117;-56
2022/10/09 10:12:51;;;;;;;11.35;3.67;;;17.60;67.50;;;;;;10376953;28;20053;-57
2022/10/09 10:18:12;;;;;;;10.82;3.67;;;17.60;67.50;;;;;;10364401;28;20045;-57
2022/10/09 10:23:33;;;;;;;5.88;2.72;;;17.60;67.40;;;;;;10361769;28;20049;-57
2022/10/09 10:28:47;;;;;;;9.00;3.15;;;17.60;67.30;;;;;;10362035;28;20105;-57
2022/10/09 10:33:54;;;;;;;10.88;3.33;;;17.70;67.30;;;;;;10363541;28;20076;-57
2022/10/09 10:39:08;;;;;;;10.13;3.88;;;17.70;67.30;;;;;;10363042;28;20087;-57
2022/10/09 10:44:39;;;;;;;7.43;3.03;;;17.70;67.30;;;;;;10372266;28;20045;-57
2022/10/09 10:49:40;;;;;;;8.45;3.33;;;17.80;67.30;;;;;;10364206;28;20022;-57
2022/10/09 10:55:18;;;;;;;8.95;2.38;;;17.80;67.30;;;;;;10363810;28;20117;-57
2022/10/09 11:00:19;;;;;;;5.95;2.20;;;17.80;67.10;;;;;;10366990;28;20374;-56
2022/10/09 11:05:36;;;;;;;5.47;2.80;;;17.80;67.20;;;;;;10364277;28;20382;-57
2022/10/09 11:11:21;;;;;;;6.20;1.90;;;17.80;67.20;;;;;;10364000;28;20026;-57
2022/10/09 11:16:38;;;;;;;6.22;2.20;;;17.90;67.80;;;;;;10363752;28;20052;-57
2022/10/09 11:22:06;;;;;;;5.50;1.75;;;17.90;68.10;;;;;;10363548;28;20456;-57
2022/10/09 11:27:38;;;;;;;3.58;1.92;;;17.90;68.30;;;;;;10375867;28;20025;-57
2022/10/09 11:33:34;;;;;;;5.60;2.20;;;17.90;68.30;;;;;;10363781;28;20022;-57
2022/10/09 11:38:42;;;;;;;4.63;1.73;;;18.00;68.30;;;;;;10362118;28;20030;-56
2022/10/09 11:44:23;;;;;;;6.20;1.80;;;17.90;68.40;;;;;;10361764;28;20064;-57
2022/10/09 11:49:42;;;;;;;;;;;18.00;68.50;;;;;;10376598;28;20026;-58
2022/10/09 11:54:43;;;;;;;3.85;1.90;;;17.90;68.50;;;;;;10362785;28;19920;-57
2022/10/09 11:59:44;;;;;;;8.00;3.42;;;17.90;68.70;;;;;;10363866;28;20022;-57
2022/10/09 12:04:46;;;;;;;4.53;1.55;;;17.90;68.70;;;;;;10377482;28;20056;-56
2022/10/09 12:09:48;;;;;;;2.47;1.60;;;17.90;68.70;;;;;;10362291;28;20389;-56
2022/10/09 12:14:51;;;;;;;3.63;1.65;;;17.90;68.70;;;;;;10360994;28;20121;-57
2022/10/09 12:19:59;;;;;;;4.60;2.10;;;17.90;68.70;;;;;;10360763;28;20029;-57
2022/10/09 12:25:37;;;;;;;5.40;2.63;;;17.90;68.70;;;;;;10361619;28;20135;-57
2022/10/09 12:30:40;;;;;;;4.05;2.25;;;17.90;68.60;;;;;;10360985;28;20025;-57
2022/10/09 12:35:45;;;;;;;4.82;2.42;;;17.90;68.70;;;;;;10360573;28;20026;-57
2022/10/09 12:40:47;;;;;;;2.80;1.70;;;17.90;68.80;;;;;;10360299;28;20046;-57
2022/10/09 12:45:51;;;;;;;4.50;1.65;;;17.90;68.70;;;;;;10360255;28;20105;-56
2022/10/09 12:50:53;;;;;;;5.80;1.80;;;17.90;68.80;;;;;;10360851;28;20109;-57
2022/10/09 12:55:59;;;;;;;3.72;1.95;;;17.90;68.80;;;;;;10360973;28;20030;-57
2022/10/09 13:01:04;;;;;;;3.58;1.80;;;17.90;68.80;;;;;;10360666;28;20112;-57
2022/10/09 13:06:18;;;;;;;3.30;1.35;;;17.90;68.80;;;;;;10369038;28;20334;-56
2022/10/09 13:11:32;;;;;;;2.50;1.63;;;17.90;68.60;;;;;;10367382;28;20048;-57
2022/10/09 13:16:43;;;;;;;3.10;1.95;;;17.90;68.70;;;;;;10367368;28;20045;-57
2022/10/09 13:21:43;;;;;;;3.97;1.55;;;17.90;68.60;;;;;;10368247;28;20026;-56
2022/10/09 13:26:44;;;;;;;2.53;1.40;;;17.90;68.60;;;;;;10368222;28;20109;-57
2022/10/09 13:31:46;;;;;;;1.95;1.10;;;17.80;68.50;;;;;;10368045;28;20101;-57
2022/10/09 13:36:46;;;;;;;4.25;1.58;;;17.80;68.50;;;;;;10379593;28;20473;-58
2022/10/09 13:41:54;;;;;;;1.90;1.40;;;17.80;68.50;;;;;;10366397;28;20046;-57
2022/10/09 13:46:54;;;;;;;3.60;1.80;;;17.80;68.50;;;;;;10366346;28;20302;-56
2022/10/09 13:51:55;;;;;;;2.60;1.25;;;17.80;68.50;;;;;;10367800;28;20046;-55
2022/10/09 13:56:56;;;;;;;2.50;1.33;;;17.80;68.40;;;;;;10369345;28;20068;-57
2022/10/09 14:01:57;;;;;;;1.92;1.15;;;17.80;68.40;;;;;;10367776;28;20076;-57
2022/10/09 14:06:58;;;;;;;2.17;1.40;;;17.80;68.50;;;;;;10367467;28;20062;-57
2022/10/09 14:11:59;;;;;;;2.08;1.15;;;17.80;68.40;;;;;;10366614;28;20112;-56
2022/10/09 14:17:00;;;;;;;3.30;1.33;;;17.80;68.50;;;;;;10364777;28;20495;-57
2022/10/09 14:22:00;;;;;;;2.42;1.42;;;17.70;68.40;;;;;;10379759;28;20022;-56
2022/10/09 14:27:01;;;;;;;3.72;1.48;;;17.70;68.40;;;;;;10364960;28;20108;-58
2022/10/09 14:32:02;;;;;;;3.53;1.50;;;17.70;68.40;;;;;;10366974;28;20430;-57
2022/10/09 14:37:02;;;;;;;5.03;1.63;;;17.70;68.20;;;;;;10366367;28;20037;-57
2022/10/09 14:42:03;;;;;;;4.82;1.50;;;17.70;68.00;;;;;;10367675;28;20077;-58
2022/10/09 14:47:04;;;;;;;3.60;1.67;;;17.70;67.90;;;;;;10366519;28;20025;-57
2022/10/09 14:52:05;;;;;;;4.20;1.60;;;17.60;68.00;;;;;;10366241;28;20040;-57
2022/10/09 14:57:05;;;;;;;4.03;1.83;;;17.60;67.90;;;;;;10369565;28;20117;-57
2022/10/09 15:02:06;;;;;;;4.55;1.55;;;17.60;67.80;;;;;;10382316;28;20010;-57
2022/10/09 15:07:07;;;;;;;5.25;1.98;;;17.60;67.90;;;;;;10365449;28;20018;-59
2022/10/09 15:12:07;;;;;;;5.45;2.08;;;17.60;67.80;;;;;;10364422;28;20018;-57
2022/10/09 15:17:08;;;;;;;5.25;1.75;;;17.60;67.70;;;;;;10394599;28;20111;-57
2022/10/09 15:22:09;;;;;;;5.00;1.80;;;17.50;67.70;;;;;;10353323;28;20060;-57
2022/10/09 15:27:09;;;;;;;5.32;2.03;;;17.50;67.60;;;;;;10364734;28;20105;-56
2022/10/09 15:32:10;;;;;;;5.95;2.10;;;17.50;67.60;;;;;;10366058;28;20104;-58
2022/10/09 15:37:11;;;;;;;4.05;1.92;;;17.50;67.60;;;;;;10364462;28;20064;-59
2022/10/09 15:42:11;;;;;;;3.42;1.75;;;17.50;67.50;;;;;;10364163;28;20485;-60
2022/10/09 15:47:12;;;;;;;5.07;1.92;;;17.50;67.50;;;;;;10380841;28;20156;-60
2022/10/09 15:52:13;;;;;;;12.85;2.70;;;17.50;67.50;;;;;;10363266;28;20056;-59
2022/10/09 15:57:13;;;;;;;20.25;4.75;;;17.50;67.10;;;;;;10378180;28;20169;-60
2022/10/09 16:02:14;;;;;;;30.55;7.32;;;17.50;66.80;;;;;;10363140;28;20121;-60
2022/10/09 16:07:15;;;;;;;33.15;10.65;;;17.50;66.70;;;;;;10363818;28;20054;-60
2022/10/09 16:12:15;;;;;;;38.97;13.27;;;17.50;66.30;;;;;;10346273;28;20049;-61
2022/10/09 16:17:16;;;;;;;55.38;13.45;;;17.50;66.40;;;;;;10364637;28;20582;-59
2022/10/09 16:22:17;;;;;;;58.22;17.98;;;17.50;66.00;;;;;;10363570;28;20053;-59
2022/10/09 16:27:18;;;;;;;52.83;19.70;;;17.50;67.60;;;;;;10364667;28;20184;-58
2022/10/09 16:32:18;;;;;;;45.70;15.80;;;17.60;68.40;;;;;;10364836;28;20741;-59
2022/10/09 16:37:19;;;;;;;52.08;13.10;;;17.70;69.10;;;;;;10365594;28;20062;-59
2022/10/09 16:42:20;;;;;;;38.05;12.18;;;17.80;68.50;;;;;;10372527;28;20069;-59
2022/10/09 16:47:20;;;;;;;38.03;15.48;;;17.80;67.50;;;;;;10370891;28;20030;-59
2022/10/09 16:52:21;;;;;;;33.70;13.23;;;17.80;67.20;;;;;;10372407;28;20469;-58
2022/10/09 16:57:21;;;;;;;34.55;9.90;;;17.80;67.20;;;;;;10369747;28;20030;-57
2022/10/09 17:02:22;;;;;;;31.77;10.80;;;17.90;67.00;;;;;;10369807;28;20497;-59
2022/10/09 17:07:23;;;;;;;41.33;10.13;;;17.90;67.30;;;;;;10371706;28;20022;-59
2022/10/09 17:12:24;;;;;;;36.13;11.63;;;17.90;67.80;;;;;;10371556;28;20022;-60
2022/10/09 17:17:25;;;;;;;26.90;8.73;;;17.90;67.70;;;;;;10371437;28;20040;-60
2022/10/09 17:22:26;;;;;;;24.08;8.13;;;17.80;68.10;;;;;;10369810;28;20060;-60
2022/10/09 17:27:26;;;;;;;23.00;9.07;;;17.70;68.30;;;;;;10382735;28;20124;-59
2022/10/09 17:32:27;;;;;;;18.55;7.93;;;17.60;68.30;;;;;;10382806;28;20129;-60
2022/10/09 17:37:27;;;;;;;20.75;7.80;;;17.60;68.30;;;;;;10368200;28;20453;-60
2022/10/09 17:42:28;;;;;;;30.65;8.23;;;17.70;68.10;;;;;;10368239;28;20061;-59
2022/10/09 17:47:29;;;;;;;26.17;9.70;;;17.60;68.00;;;;;;10368180;28;20021;-63
2022/10/09 17:52:29;;;;;;;17.83;7.43;;;17.80;67.40;;;;;;10381456;28;20422;-58
2022/10/09 17:57:30;;;;;;;23.05;8.35;;;17.80;67.40;;;;;;10371842;28;20085;-58
2022/10/09 18:02:31;;;;;;;17.35;7.82;;;17.70;67.60;;;;;;10368490;28;20038;-59
2022/10/09 18:07:31;;;;;;;17.63;7.22;;;17.60;67.90;;;;;;10369233;28;20022;-58
2022/10/09 18:12:32;;;;;;;23.63;8.50;;;17.50;67.70;;;;;;10369287;28;20045;-58
2022/10/09 18:17:33;;;;;;;22.00;7.68;;;17.60;68.10;;;;;;10367301;28;20164;-58
2022/10/09 18:22:36;;;;;;;15.13;6.43;;;17.50;68.20;;;;;;10367797;28;20014;-58
2022/10/09 18:27:37;;;;;;;14.13;6.20;;;17.50;68.30;;;;;;10367404;28;20488;-59
2022/10/09 18:32:38;;;;;;;12.02;5.85;;;17.50;68.10;;;;;;10373940;28;20022;-58
2022/10/09 18:37:39;;;;;;;13.48;6.70;;;17.50;68.10;;;;;;10366320;28;20049;-58
2022/10/09 18:42:40;;;;;;;16.73;8.52;;;17.40;68.10;;;;;;10366340;28;20798;-59
2022/10/09 18:47:41;;;;;;;18.42;8.10;;;17.50;69.00;;;;;;10365922;28;20045;-61
2022/10/09 18:52:43;;;;;;;13.48;6.45;;;17.60;68.50;;;;;;10366294;28;20018;-58
2022/10/09 18:57:45;;;;;;;14.48;6.82;;;17.50;68.30;;;;;;10366882;28;20753;-58
2022/10/09 19:02:46;;;;;;;15.02;7.70;;;17.50;68.40;;;;;;10358669;28;20041;-59
2022/10/09 19:07:47;;;;;;;13.55;7.13;;;17.50;68.50;;;;;;10363408;28;20116;-58
2022/10/09 19:12:48;;;;;;;11.20;6.95;;;17.50;68.40;;;;;;10369918;28;20105;-58
2022/10/09 19:17:49;;;;;;;13.88;7.10;;;17.40;68.30;;;;;;10374516;28;20087;-59
2022/10/09 19:22:50;;;;;;;12.82;6.25;;;17.40;68.40;;;;;;10364737;28;20026;-58
2022/10/09 19:27:50;;;;;;;10.60;6.53;;;17.40;68.20;;;;;;10366075;28;20109;-59
2022/10/09 19:32:51;;;;;;;9.82;5.97;;;17.40;68.00;;;;;;10374086;28;20045;-59
2022/10/09 19:37:52;;;;;;;8.75;5.97;;;17.40;67.90;;;;;;10352613;28;20057;-60
2022/10/09 19:42:52;;;;;;;12.10;6.28;;;17.40;67.90;;;;;;10364874;28;20034;-58
2022/10/09 19:47:53;;;;;;;11.68;6.47;;;17.40;67.90;;;;;;10373922;28;20053;-58
2022/10/09 19:52:54;;;;;;;9.07;6.47;;;17.40;67.80;;;;;;10365087;28;20072;-58
2022/10/09 19:57:56;;;;;;;8.90;5.35;;;17.40;67.70;;;;;;10380266;28;20018;-59
2022/10/09 20:02:57;;;;;;;8.43;6.50;;;17.30;67.80;;;;;;10363005;28;20018;-59
2022/10/09 20:07:57;;;;;;;11.68;6.60;;;17.30;67.70;;;;;;10363111;28;20022;-58
2022/10/09 20:12:58;;;;;;;12.48;6.50;;;17.30;67.60;;;;;;10362433;28;20110;-58
2022/10/09 20:17:59;;;;;;;8.70;6.20;;;17.30;67.70;;;;;;10362413;28;20156;-58
2022/10/09 20:22:59;;;;;;;9.75;6.25;;;17.30;67.50;;;;;;10366495;28;20462;-58
2022/10/09 20:28:00;;;;;;;7.88;5.57;;;17.30;67.60;;;;;;10363596;28;20029;-58
2022/10/09 20:33:00;;;;;;;9.93;6.28;;;17.30;67.50;;;;;;10363852;28;20033;-59
2022/10/09 20:38:01;;;;;;;8.63;5.70;;;17.30;67.60;;;;;;10362777;28;20128;-58
2022/10/09 20:43:02;;;;;;;8.73;5.30;;;17.30;67.40;;;;;;10363868;28;20065;-59
2022/10/09 20:48:03;;;;;;;8.00;6.10;;;17.30;68.00;;;;;;10378955;28;20473;-59
2022/10/09 20:53:04;;;;;;;8.88;5.53;;;17.30;67.50;;;;;;10346481;28;20034;-59
2022/10/09 20:58:05;;;;;;;6.88;5.05;;;17.30;67.40;;;;;;10366247;28;20026;-59
2022/10/09 21:03:05;;;;;;;6.00;4.78;;;17.30;67.30;;;;;;10363738;28;20024;-58
2022/10/09 21:08:06;;;;;;;7.38;4.93;;;17.30;67.30;;;;;;10364044;28;20101;-59
2022/10/09 21:13:07;;;;;;;8.75;4.82;;;17.30;67.40;;;;;;10377001;28;20153;-59
2022/10/09 21:18:07;;;;;;;7.75;5.22;;;17.30;67.30;;;;;;10362200;28;20056;-57
2022/10/09 21:23:10;;;;;;;5.38;4.18;;;17.30;67.30;;;;;;10363474;28;20350;-59
2022/10/09 21:28:11;;;;;;;6.20;4.55;;;17.30;67.20;;;;;;10369624;28;20030;-58
2022/10/09 21:33:13;;;;;;;6.18;4.15;;;17.20;67.20;;;;;;10369415;28;20188;-58
2022/10/09 21:38:19;;;;;;;8.02;3.78;;;17.20;67.10;;;;;;10368999;28;20043;-58
2022/10/09 21:43:20;;;;;;;5.68;3.88;;;17.20;67.10;;;;;;10356132;28;20046;-58
2022/10/09 21:48:21;;;;;;;5.55;3.85;;;17.30;67.20;;;;;;10385640;28;20040;-58
2022/10/09 21:53:21;;;;;;;5.85;3.63;;;17.30;67.20;;;;;;10382775;28;20050;-58
2022/10/09 21:58:22;;;;;;;5.70;4.07;;;17.20;67.00;;;;;;10370358;28;20022;-58
2022/10/09 22:03:25;;;;;;;5.53;3.65;;;17.20;67.00;;;;;;10368350;28;20030;-57
2022/10/09 22:08:26;;;;;;;8.43;4.05;;;17.20;67.00;;;;;;10369526;28;20080;-58
2022/10/09 22:13:26;;;;;;;4.47;3.55;;;17.20;66.90;;;;;;10367955;28;20465;-58
2022/10/09 22:18:27;;;;;;;4.13;3.25;;;17.20;66.90;;;;;;10369037;28;20172;-58
2022/10/09 22:23:28;;;;;;;4.93;3.53;;;17.20;66.90;;;;;;10378934;28;20097;-59
2022/10/09 22:28:29;;;;;;;5.38;3.33;;;17.20;66.90;;;;;;10385567;28;20669;-59
2022/10/09 22:33:30;;;;;;;4.85;3.38;;;17.20;66.80;;;;;;10381400;28;20026;-59
2022/10/09 22:38:30;;;;;;;4.50;3.25;;;17.20;66.80;;;;;;10368239;28;20037;-58
2022/10/09 22:43:31;;;;;;;6.20;3.58;;;17.20;66.70;;;;;;10366725;28;20062;-59
2022/10/09 22:48:33;;;;;;;4.47;2.90;;;17.20;66.70;;;;;;10366824;28;20544;-58
2022/10/09 22:53:36;;;;;;;6.15;3.38;;;17.20;66.70;;;;;;10366403;28;20033;-59
2022/10/09 22:58:36;;;;;;;3.35;2.65;;;17.20;66.60;;;;;;10368501;28;20045;-58
2022/10/09 23:03:37;;;;;;;6.22;3.65;;;17.20;66.60;;;;;;10366062;28;20475;-59
2022/10/09 23:08:40;;;;;;;4.78;3.53;;;17.10;66.50;;;;;;10365707;28;20330;-59
2022/10/09 23:13:41;;;;;;;4.15;2.75;;;17.10;66.40;;;;;;10366968;28;20018;-58
2022/10/09 23:18:43;;;;;;;2.92;2.15;;;17.10;66.40;;;;;;10365386;28;20034;-58
2022/10/09 23:23:45;;;;;;;5.10;3.22;;;17.10;66.40;;;;;;10365430;28;20022;-59
2022/10/09 23:28:55;;;;;;;5.43;2.75;;;17.10;66.40;;;;;;10365178;28;20381;-58
2022/10/09 23:33:57;;;;;;;4.47;2.63;;;17.10;66.30;;;;;;10366203;28;20026;-58
2022/10/09 23:39:02;;;;;;;4.18;2.58;;;17.10;66.30;;;;;;10364422;28;20029;-58
2022/10/09 23:44:03;;;;;;;3.90;2.42;;;17.10;66.40;;;;;;10364188;28;20060;-59
2022/10/09 23:49:04;;;;;;;4.80;3.03;;;17.10;66.30;;;;;;10380322;28;20018;-58
2022/10/09 23:54:05;;;;;;;4.55;2.90;;;17.10;66.30;;;;;;10363926;28;20026;-58
2022/10/09 23:59:06;;;;;;;3.97;2.65;;;17.10;66.20;;;;;;10365285;28;20787;-58
